createdAt,value
2023-01-13T00:00:16.692Z,89.56
2023-01-13T00:02:44.581Z,89.55
2023-01-13T00:05:12.389Z,89.39
2023-01-13T00:07:40.660Z,89.60
2023-01-13T00:10:08.374Z,89.37
2023-01-13T00:12:36.398Z,89.52
2023-01-13T00:15:05.946Z,89.25
2023-01-13T00:17:33.643Z,89.58
2023-01-13T00:20:01.283Z,90.05
2023-01-13T00:22:29.543Z,89.63
2023-01-13T00:24:59.146Z,89.38
2023-01-13T00:27:26.833Z,89.41
2023-01-13T00:29:54.507Z,89.97
2023-01-13T00:32:22.212Z,89.57
2023-01-13T00:34:49.953Z,89.85
2023-01-13T00:37:18.309Z,89.44
2023-01-13T00:39:46.576Z,89.54
2023-01-13T00:42:31.537Z,89.38
2023-01-13T00:44:59.245Z,88.82
2023-01-13T00:47:27.218Z,89.17
2023-01-13T00:49:54.885Z,88.95
2023-01-13T00:52:22.541Z,89.15
2023-01-13T00:54:50.211Z,89.30
2023-01-13T00:57:18.893Z,89.39
2023-01-13T00:59:48.053Z,89.31
2023-01-13T01:02:17.103Z,89.70
2023-01-13T01:04:44.800Z,89.13
2023-01-13T01:07:12.449Z,88.99
2023-01-13T01:09:40.069Z,88.56
2023-01-13T01:12:08.095Z,87.84
2023-01-13T01:14:35.769Z,87.58
2023-01-13T01:17:04.014Z,87.52
2023-01-13T01:19:31.709Z,87.30
2023-01-13T01:21:59.482Z,87.24
2023-01-13T01:24:27.479Z,87.26
2023-01-13T01:26:55.283Z,87.17
2023-01-13T01:29:22.989Z,87.03
2023-01-13T01:31:50.609Z,87.30
2023-01-13T01:34:18.161Z,87.25
2023-01-13T01:36:46.195Z,87.69
2023-01-13T01:39:13.822Z,87.90
2023-01-13T01:42:01.826Z,88.34
2023-01-13T01:44:28.377Z,87.95
2023-01-13T01:46:56.423Z,87.56
2023-01-13T01:49:24.247Z,87.68
2023-01-13T01:51:51.846Z,87.13
2023-01-13T01:54:19.536Z,86.97
2023-01-13T01:56:47.215Z,86.98
2023-01-13T01:59:15.183Z,86.73
2023-01-13T02:01:44.540Z,86.88
2023-01-13T02:04:12.156Z,86.67
2023-01-13T02:06:39.727Z,86.56
2023-01-13T02:09:07.314Z,86.29
2023-01-13T02:11:52.600Z,86.14
2023-01-13T02:14:20.206Z,86.14
2023-01-13T02:16:47.760Z,86.28
2023-01-13T02:19:15.436Z,86.21
2023-01-13T02:21:43.015Z,86.38
2023-01-13T02:24:28.305Z,86.23
2023-01-13T02:26:56.119Z,86.38
2023-01-13T02:29:41.530Z,86.39
2023-01-13T02:32:09.097Z,86.33
2023-01-13T02:34:37.050Z,86.11
2023-01-13T02:37:04.701Z,86.05
2023-01-13T02:39:32.255Z,86.29
2023-01-13T02:42:17.668Z,86.49
2023-01-13T02:44:45.268Z,85.91
2023-01-13T02:47:13.113Z,86.11
2023-01-13T02:49:40.733Z,86.11
2023-01-13T02:52:08.319Z,85.81
2023-01-13T02:54:35.877Z,85.44
2023-01-13T02:57:03.909Z,85.58
2023-01-13T02:59:31.974Z,85.77
2023-01-13T03:01:59.689Z,85.16
2023-01-13T03:04:27.872Z,85.22
2023-01-13T03:06:55.443Z,85.22
2023-01-13T03:09:23.432Z,85.09
2023-01-13T03:11:51.196Z,85.29
2023-01-13T03:14:18.811Z,84.94
2023-01-13T03:16:46.443Z,84.40
2023-01-13T03:19:14.129Z,84.58
2023-01-13T03:21:42.099Z,84.30
2023-01-13T03:24:09.970Z,84.56
2023-01-13T03:26:38.148Z,85.04
2023-01-13T03:29:05.740Z,84.63
2023-01-13T03:31:33.470Z,84.71
2023-01-13T03:34:01.448Z,84.59
2023-01-13T03:36:29.256Z,84.36
2023-01-13T03:38:57.077Z,84.19
2023-01-13T03:41:24.755Z,84.15
2023-01-13T03:44:10.198Z,84.37
2023-01-13T03:46:38.089Z,84.02
2023-01-13T03:49:05.642Z,84.18
2023-01-13T03:51:33.254Z,84.04
2023-01-13T03:54:00.894Z,83.93
2023-01-13T03:56:28.892Z,83.84
2023-01-13T03:58:56.449Z,83.63
2023-01-13T04:01:24.319Z,84.02
2023-01-13T04:03:52.047Z,83.61
2023-01-13T04:06:19.690Z,83.91
2023-01-13T04:08:48.209Z,83.86
2023-01-13T04:11:15.785Z,83.74
2023-01-13T04:13:43.335Z,83.91
2023-01-13T04:16:11.365Z,83.27
2023-01-13T04:18:39.001Z,83.61
2023-01-13T04:21:06.954Z,83.49
2023-01-13T04:23:34.621Z,83.52
2023-01-13T04:26:02.218Z,83.50
2023-01-13T04:28:29.804Z,83.26
2023-01-13T04:30:57.931Z,83.60
2023-01-13T04:33:25.952Z,83.59
2023-01-13T04:35:53.853Z,83.84
2023-01-13T04:38:21.470Z,83.47
2023-01-13T04:40:49.105Z,83.24
2023-01-13T04:43:16.832Z,82.85
2023-01-13T04:45:44.799Z,83.03
2023-01-13T04:48:12.389Z,83.01
2023-01-13T04:50:40.002Z,82.69
2023-01-13T04:53:07.938Z,83.11
2023-01-13T04:55:35.522Z,83.18
2023-01-13T04:58:03.081Z,82.98
2023-01-13T05:00:30.734Z,83.27
2023-01-13T05:02:58.365Z,82.73
2023-01-13T05:05:25.969Z,82.94
2023-01-13T05:07:53.579Z,82.60
2023-01-13T05:10:23.755Z,82.02
2023-01-13T05:13:09.705Z,82.21
2023-01-13T05:15:54.778Z,81.82
2023-01-13T05:18:22.586Z,81.60
2023-01-13T05:20:50.396Z,82.05
2023-01-13T05:23:35.581Z,82.19
2023-01-13T05:26:03.187Z,81.63
2023-01-13T05:28:30.954Z,81.59
2023-01-13T05:30:59.063Z,81.57
2023-01-13T05:33:27.138Z,81.51
2023-01-13T05:35:54.767Z,81.58
2023-01-13T05:38:22.446Z,81.76
2023-01-13T05:41:07.982Z,81.94
2023-01-13T05:43:35.845Z,81.80
2023-01-13T05:46:03.597Z,81.49
2023-01-13T05:48:31.265Z,81.44
2023-01-13T05:50:58.972Z,81.24
2023-01-13T05:53:27.319Z,80.83
2023-01-13T05:55:54.958Z,81.25
2023-01-13T05:58:22.700Z,80.79
2023-01-13T06:00:50.289Z,81.08
2023-01-13T06:03:20.024Z,81.62
2023-01-13T06:05:48.632Z,81.33
2023-01-13T06:08:16.704Z,81.15
2023-01-13T06:10:44.285Z,81.17
2023-01-13T06:13:12.038Z,81.82
2023-01-13T06:15:40.203Z,80.81
2023-01-13T06:18:07.915Z,81.03
2023-01-13T06:20:35.691Z,81.66
2023-01-13T06:23:03.429Z,81.32
2023-01-13T06:25:31.187Z,80.80
2023-01-13T06:27:58.890Z,81.20
2023-01-13T06:30:26.979Z,80.70
2023-01-13T06:32:54.633Z,80.93
2023-01-13T06:35:22.439Z,80.59
2023-01-13T06:37:50.605Z,80.82
2023-01-13T06:40:18.276Z,80.38
2023-01-13T06:43:06.240Z,80.32
2023-01-13T06:45:33.859Z,80.00
2023-01-13T06:48:01.512Z,79.93
2023-01-13T06:50:29.288Z,79.78
2023-01-13T06:52:56.908Z,79.92
2023-01-13T06:55:30.653Z,79.93
2023-01-13T06:57:58.307Z,79.79
2023-01-13T07:00:26.065Z,79.38
2023-01-13T07:02:53.967Z,79.00
2023-01-13T07:05:21.673Z,78.91
2023-01-13T07:07:49.855Z,78.84
2023-01-13T07:10:22.610Z,78.70
2023-01-13T07:13:07.621Z,78.69
2023-01-13T07:15:35.398Z,79.03
2023-01-13T07:18:05.221Z,79.47
2023-01-13T07:20:33.345Z,79.07
2023-01-13T07:23:01.179Z,79.18
2023-01-13T07:25:28.900Z,79.19
2023-01-13T07:27:56.569Z,79.27
2023-01-13T07:30:24.300Z,79.54
2023-01-13T07:32:52.073Z,79.02
2023-01-13T07:35:23.260Z,79.25
2023-01-13T07:37:51.530Z,79.73
2023-01-13T07:40:19.509Z,79.78
2023-01-13T07:43:05.422Z,79.73
2023-01-13T07:45:33.435Z,79.38
2023-01-13T07:48:01.184Z,79.50
2023-01-13T07:50:28.886Z,79.91
2023-01-13T07:52:56.668Z,79.30
2023-01-13T07:55:24.631Z,79.57
2023-01-13T07:57:52.426Z,79.31
2023-01-13T08:00:20.690Z,79.16
2023-01-13T08:02:48.554Z,79.38
2023-01-13T08:05:16.911Z,79.26
2023-01-13T08:07:44.568Z,79.61
2023-01-13T08:10:12.834Z,79.09
2023-01-13T08:12:58.022Z,79.48
2023-01-13T08:15:25.800Z,78.92
2023-01-13T08:17:53.849Z,78.95
2023-01-13T08:20:22.212Z,78.70
2023-01-13T08:22:50.034Z,78.55
2023-01-13T08:25:17.736Z,78.71
2023-01-13T08:27:45.695Z,78.04
2023-01-13T08:30:13.808Z,78.10
2023-01-13T08:32:41.912Z,77.55
2023-01-13T08:35:10.008Z,77.26
2023-01-13T08:37:38.004Z,76.96
2023-01-13T08:40:05.989Z,77.28
2023-01-13T08:42:34.786Z,77.09
2023-01-13T08:45:02.644Z,76.43
2023-01-13T08:47:30.503Z,76.45
2023-01-13T08:49:58.634Z,76.38
2023-01-13T08:52:26.459Z,76.61
2023-01-13T08:54:54.729Z,76.82
2023-01-13T08:57:22.815Z,76.53
2023-01-13T08:59:50.706Z,76.54
2023-01-13T09:02:18.722Z,76.26
2023-01-13T09:04:47.472Z,76.19
2023-01-13T09:07:15.734Z,76.20
2023-01-13T09:09:44.236Z,75.69
2023-01-13T09:12:29.440Z,76.14
2023-01-13T09:14:57.376Z,76.04
2023-01-13T09:17:25.681Z,75.94
2023-01-13T09:19:53.954Z,75.84
2023-01-13T09:22:22.080Z,75.86
2023-01-13T09:24:50.072Z,75.90
2023-01-13T09:27:17.957Z,75.79
2023-01-13T09:29:46.334Z,75.92
2023-01-13T09:32:14.382Z,75.48
2023-01-13T09:35:11.376Z,75.65
2023-01-13T09:37:39.415Z,75.46
2023-01-13T09:40:07.919Z,75.14
2023-01-13T09:42:53.306Z,75.15
2023-01-13T09:45:22.453Z,75.03
2023-01-13T09:47:51.488Z,75.39
2023-01-13T09:50:19.933Z,74.33
2023-01-13T09:52:47.786Z,74.49
2023-01-13T09:55:15.855Z,74.53
2023-01-13T09:57:44.248Z,74.65
2023-01-13T10:00:12.154Z,74.64
2023-01-13T10:02:40.949Z,74.86
2023-01-13T10:05:09.053Z,74.50
2023-01-13T10:07:37.272Z,74.51
2023-01-13T10:10:09.243Z,74.38
2023-01-13T10:12:55.588Z,74.41
2023-01-13T10:15:23.485Z,74.16
2023-01-13T10:17:51.433Z,73.74
2023-01-13T10:20:19.977Z,73.59
2023-01-13T10:22:48.056Z,73.85
2023-01-13T10:25:19.187Z,73.95
2023-01-13T10:27:50.527Z,73.83
2023-01-13T10:30:18.362Z,73.76
2023-01-13T10:32:46.770Z,74.01
2023-01-13T10:35:14.833Z,73.74
2023-01-13T10:37:43.097Z,73.44
2023-01-13T10:40:11.036Z,73.26
2023-01-13T10:42:39.098Z,73.46
2023-01-13T10:45:08.720Z,73.44
2023-01-13T10:47:36.754Z,73.61
2023-01-13T10:50:08.035Z,73.31
2023-01-13T10:52:38.541Z,73.36
2023-01-13T10:55:06.560Z,73.57
2023-01-13T10:57:34.475Z,73.33
2023-01-13T11:00:02.377Z,73.10
2023-01-13T11:02:31.058Z,72.81
2023-01-13T11:05:00.809Z,72.52
2023-01-13T11:07:28.898Z,72.40
2023-01-13T11:09:57.322Z,72.57
2023-01-13T11:12:25.151Z,72.33
2023-01-13T11:14:53.465Z,72.04
2023-01-13T11:17:21.666Z,71.99
2023-01-13T11:19:49.554Z,71.36
2023-01-13T11:22:17.651Z,71.72
2023-01-13T11:24:46.209Z,71.54
2023-01-13T11:27:14.715Z,71.17
2023-01-13T11:29:42.835Z,70.75
2023-01-13T11:32:11.196Z,70.58
2023-01-13T11:34:39.601Z,70.44
2023-01-13T11:37:07.501Z,69.83
2023-01-13T11:39:35.572Z,70.71
2023-01-13T11:42:20.548Z,69.76
2023-01-13T11:44:48.774Z,70.52
2023-01-13T11:47:16.730Z,70.17
2023-01-13T11:49:49.284Z,70.46
2023-01-13T11:52:17.268Z,70.57
2023-01-13T11:54:46.265Z,70.86
2023-01-13T11:57:14.614Z,70.87
2023-01-13T11:59:42.498Z,71.14
2023-01-13T12:02:10.829Z,70.59
2023-01-13T12:04:38.997Z,70.02
2023-01-13T12:07:13.117Z,70.20
2023-01-13T12:09:41.544Z,69.80
2023-01-13T12:12:23.630Z,69.68
2023-01-13T12:14:51.636Z,69.25
2023-01-13T12:17:19.592Z,69.40
2023-01-13T12:19:47.611Z,69.00
2023-01-13T12:22:15.769Z,69.67
2023-01-13T12:24:44.222Z,69.15
2023-01-13T12:27:12.101Z,70.40
2023-01-13T12:29:40.152Z,70.25
2023-01-13T12:32:08.479Z,70.99
2023-01-13T12:34:36.947Z,71.72
2023-01-13T12:37:05.426Z,72.21
2023-01-13T12:39:33.318Z,73.33
2023-01-13T12:42:18.585Z,73.74
2023-01-13T12:44:46.418Z,74.19
2023-01-13T12:47:14.816Z,74.75
2023-01-13T12:49:46.218Z,74.99
2023-01-13T12:52:15.221Z,74.92
2023-01-13T12:54:43.777Z,75.76
2023-01-13T12:57:12.267Z,76.09
2023-01-13T12:59:40.182Z,76.31
2023-01-13T13:02:08.215Z,76.79
2023-01-13T13:04:36.257Z,77.03
2023-01-13T13:07:04.027Z,77.56
2023-01-13T13:09:32.367Z,77.68
2023-01-13T13:12:18.236Z,78.16
2023-01-13T13:14:46.469Z,78.46
2023-01-13T13:17:14.467Z,78.77
2023-01-13T13:19:42.579Z,78.94
2023-01-13T13:22:10.394Z,79.67
2023-01-13T13:24:39.103Z,79.81
2023-01-13T13:27:07.204Z,79.78
2023-01-13T13:29:35.118Z,79.88
2023-01-13T13:32:03.313Z,79.92
2023-01-13T13:34:31.383Z,79.97
2023-01-13T13:37:00.159Z,80.50
2023-01-13T13:39:45.257Z,80.12
2023-01-13T13:42:30.432Z,80.18
2023-01-13T13:45:15.702Z,80.46
2023-01-13T13:47:44.459Z,79.67
2023-01-13T13:50:12.419Z,79.52
2023-01-13T13:52:40.556Z,79.27
2023-01-13T13:55:08.602Z,79.28
2023-01-13T13:57:39.436Z,79.25
2023-01-13T14:00:08.461Z,78.87
2023-01-13T14:02:36.684Z,78.84
2023-01-13T14:05:04.494Z,78.50
2023-01-13T14:07:32.620Z,78.75
2023-01-13T14:10:00.462Z,78.62
2023-01-13T14:12:31.077Z,78.46
2023-01-13T14:15:00.286Z,78.37
2023-01-13T14:17:28.194Z,77.93
2023-01-13T14:19:56.537Z,78.30
2023-01-13T14:22:24.833Z,78.39
2023-01-13T14:24:56.183Z,78.19
2023-01-13T14:27:24.507Z,78.57
2023-01-13T14:29:52.563Z,78.34
2023-01-13T14:32:20.326Z,78.48
2023-01-13T14:34:48.575Z,78.17
2023-01-13T14:37:17.034Z,78.09
2023-01-13T14:39:44.894Z,78.35
2023-01-13T14:42:13.439Z,78.21
2023-01-13T14:44:41.384Z,78.51
2023-01-13T14:47:09.665Z,79.09
2023-01-13T14:49:38.303Z,79.03
2023-01-13T14:52:06.128Z,79.52
2023-01-13T14:54:33.963Z,79.88
2023-01-13T14:57:02.089Z,80.12
2023-01-13T14:59:29.949Z,80.50
2023-01-13T15:01:58.512Z,80.30
2023-01-13T15:04:26.848Z,80.37
2023-01-13T15:06:54.730Z,80.41
2023-01-13T15:09:22.644Z,80.42
2023-01-13T15:11:50.716Z,80.77
2023-01-13T15:14:19.385Z,80.83
2023-01-13T15:16:47.380Z,80.88
2023-01-13T15:19:15.557Z,80.83
2023-01-13T15:21:43.479Z,80.80
2023-01-13T15:24:11.298Z,80.72
2023-01-13T15:26:43.912Z,80.64
2023-01-13T15:29:11.704Z,80.53
2023-01-13T15:31:39.571Z,80.80
2023-01-13T15:34:07.574Z,80.83
2023-01-13T15:36:37.169Z,80.75
2023-01-13T15:39:05.779Z,80.96
2023-01-13T15:41:51.012Z,81.36
2023-01-13T15:44:36.218Z,81.25
2023-01-13T15:47:04.626Z,81.55
2023-01-13T15:49:35.605Z,81.75
2023-01-13T15:52:03.713Z,81.47
2023-01-13T15:54:31.955Z,81.43
2023-01-13T15:56:59.769Z,81.59
2023-01-13T15:59:27.668Z,81.26
2023-01-13T16:01:56.460Z,81.32
2023-01-13T16:04:24.267Z,81.59
2023-01-13T16:06:52.257Z,81.24
2023-01-13T16:09:20.644Z,81.76
2023-01-13T16:11:48.590Z,81.59
2023-01-13T16:14:16.900Z,81.32
2023-01-13T16:16:44.947Z,81.66
2023-01-13T16:19:12.921Z,81.98
2023-01-13T16:21:40.745Z,81.65
2023-01-13T16:24:08.688Z,82.22
2023-01-13T16:26:39.703Z,82.29
2023-01-13T16:29:08.069Z,82.05
2023-01-13T16:31:36.567Z,82.01
2023-01-13T16:34:04.515Z,81.59
2023-01-13T16:36:32.413Z,82.09
2023-01-13T16:39:00.615Z,82.19
2023-01-13T16:41:28.592Z,81.87
2023-01-13T16:43:56.362Z,81.71
2023-01-13T16:46:24.309Z,81.56
2023-01-13T16:48:53.142Z,81.28
2023-01-13T16:51:21.525Z,81.16
2023-01-13T16:53:49.527Z,80.58
2023-01-13T16:56:17.418Z,80.65
2023-01-13T16:58:45.303Z,80.17
2023-01-13T17:01:13.382Z,80.47
2023-01-13T17:03:42.126Z,80.37
2023-01-13T17:06:10.031Z,80.58
2023-01-13T17:08:37.931Z,80.70
2023-01-13T17:11:05.947Z,81.25
2023-01-13T17:13:34.150Z,81.62
2023-01-13T17:16:02.271Z,82.01
2023-01-13T17:18:30.040Z,81.87
2023-01-13T17:20:59.024Z,82.07
2023-01-13T17:23:27.907Z,82.12
2023-01-13T17:25:55.648Z,81.80
2023-01-13T17:28:24.083Z,82.08
2023-01-13T17:30:52.199Z,82.27
2023-01-13T17:33:20.002Z,82.17
2023-01-13T17:35:48.391Z,82.59
2023-01-13T17:38:16.648Z,82.50
2023-01-13T17:40:44.971Z,82.71
2023-01-13T17:43:12.975Z,82.49
2023-01-13T17:45:41.039Z,83.06
2023-01-13T17:48:08.891Z,82.16
2023-01-13T17:50:36.797Z,82.78
2023-01-13T17:53:05.040Z,82.62
2023-01-13T17:55:32.910Z,82.94
2023-01-13T17:58:01.294Z,82.60
2023-01-13T18:00:29.994Z,82.78
2023-01-13T18:02:58.061Z,82.76
2023-01-13T18:05:26.589Z,83.09
2023-01-13T18:07:54.678Z,82.89
2023-01-13T18:10:22.632Z,82.83
2023-01-13T18:12:50.586Z,82.61
2023-01-13T18:15:18.668Z,82.83
2023-01-13T18:17:47.562Z,82.21
2023-01-13T18:20:32.918Z,82.64
2023-01-13T18:23:29.397Z,81.95
2023-01-13T18:26:14.279Z,81.79
2023-01-13T18:28:42.962Z,81.04
2023-01-13T18:31:10.903Z,81.72
2023-01-13T18:33:39.100Z,81.73
2023-01-13T18:36:06.974Z,81.79
2023-01-13T18:38:35.405Z,81.40
2023-01-13T18:41:25.469Z,81.57
2023-01-13T18:43:52.249Z,81.71
2023-01-13T18:46:20.245Z,81.58
2023-01-13T18:48:48.324Z,81.69
2023-01-13T18:51:16.289Z,81.48
2023-01-13T18:53:44.478Z,81.12
2023-01-13T18:56:13.208Z,81.19
2023-01-13T18:58:43.143Z,80.98
2023-01-13T19:01:11.528Z,81.32
2023-01-13T19:03:39.642Z,81.11
2023-01-13T19:06:08.828Z,80.78
2023-01-13T19:08:36.990Z,80.60
2023-01-13T19:11:04.854Z,80.96
2023-01-13T19:13:32.697Z,80.62
2023-01-13T19:16:00.643Z,81.01
2023-01-13T19:18:28.854Z,80.67
2023-01-13T19:20:56.829Z,80.43
2023-01-13T19:23:24.706Z,80.52
2023-01-13T19:25:52.715Z,80.12
2023-01-13T19:28:20.551Z,80.63
2023-01-13T19:30:48.836Z,80.46
2023-01-13T19:33:16.792Z,80.38
2023-01-13T19:35:44.620Z,80.73
2023-01-13T19:38:12.538Z,80.24
2023-01-13T19:40:40.977Z,80.66
2023-01-13T19:43:28.369Z,79.98
2023-01-13T19:45:56.641Z,80.31
2023-01-13T19:48:24.449Z,80.07
2023-01-13T19:50:52.507Z,80.37
2023-01-13T19:53:20.468Z,80.15
2023-01-13T19:55:50.435Z,80.01
2023-01-13T19:58:19.100Z,80.16
2023-01-13T20:00:48.219Z,80.11
2023-01-13T20:03:16.812Z,79.68
2023-01-13T20:05:45.193Z,79.97
2023-01-13T20:08:13.904Z,80.02
2023-01-13T20:10:43.033Z,79.83
2023-01-13T20:13:10.880Z,79.66
2023-01-13T20:15:39.232Z,79.63
2023-01-13T20:18:07.151Z,79.60
2023-01-13T20:20:35.534Z,79.64
2023-01-13T20:23:03.445Z,79.28
2023-01-13T20:25:31.398Z,79.02
2023-01-13T20:28:02.474Z,79.49
2023-01-13T20:30:30.506Z,79.23
2023-01-13T20:32:58.357Z,79.24
2023-01-13T20:35:29.899Z,79.38
2023-01-13T20:37:57.927Z,79.84
2023-01-13T20:40:26.073Z,80.59
2023-01-13T20:42:52.911Z,80.75
2023-01-13T20:45:23.311Z,80.16
2023-01-13T20:47:51.302Z,80.84
2023-01-13T20:50:19.110Z,81.25
2023-01-13T20:52:47.304Z,81.00
2023-01-13T20:55:15.142Z,81.00
2023-01-13T20:57:43.417Z,80.67
2023-01-13T21:00:11.740Z,80.57
2023-01-13T21:02:39.619Z,80.55
2023-01-13T21:05:07.514Z,80.35
2023-01-13T21:07:35.569Z,79.82
2023-01-13T21:10:04.241Z,79.49
2023-01-13T21:12:49.318Z,79.39
2023-01-13T21:15:22.124Z,78.90
2023-01-13T21:18:07.405Z,78.65
2023-01-13T21:20:35.546Z,78.34
2023-01-13T21:23:03.356Z,78.63
2023-01-13T21:25:33.041Z,78.53
2023-01-13T21:28:05.857Z,78.77
2023-01-13T21:30:34.145Z,78.47
2023-01-13T21:33:04.266Z,78.58
2023-01-13T21:35:32.524Z,78.46
2023-01-13T21:38:00.569Z,78.58
2023-01-13T21:40:28.432Z,78.74
2023-01-13T21:43:14.057Z,78.54
2023-01-13T21:45:59.459Z,78.60
2023-01-13T21:48:27.531Z,78.70
2023-01-13T21:50:55.469Z,78.88
2023-01-13T21:53:23.674Z,79.21
2023-01-13T21:55:51.583Z,78.87
2023-01-13T21:58:19.386Z,79.10
2023-01-13T22:00:49.237Z,79.43
2023-01-13T22:03:18.841Z,79.10
2023-01-13T22:05:47.180Z,79.44
2023-01-13T22:08:15.105Z,79.42
2023-01-13T22:10:58.144Z,78.74
2023-01-13T22:13:43.543Z,78.87
2023-01-13T22:16:12.192Z,78.98
2023-01-13T22:18:40.029Z,78.76
2023-01-13T22:21:08.282Z,78.92
2023-01-13T22:23:36.295Z,78.90
2023-01-13T22:26:04.190Z,78.99
2023-01-13T22:28:34.976Z,79.04
2023-01-13T22:31:03.170Z,78.99
2023-01-13T22:33:31.281Z,78.95
2023-01-13T22:35:59.180Z,79.33
2023-01-13T22:38:27.043Z,79.75
2023-01-13T22:40:55.018Z,80.35
2023-01-13T22:43:22.846Z,80.30
2023-01-13T22:45:50.840Z,80.72
2023-01-13T22:48:18.725Z,80.60
2023-01-13T22:50:46.562Z,80.84
2023-01-13T22:53:14.917Z,80.38
2023-01-13T22:55:44.372Z,80.13
2023-01-13T22:58:12.432Z,80.72
2023-01-13T23:00:40.335Z,80.00
2023-01-13T23:03:08.234Z,80.04
2023-01-13T23:05:36.815Z,80.24
2023-01-13T23:08:04.764Z,80.00
2023-01-13T23:10:32.718Z,79.57
2023-01-13T23:13:00.503Z,79.46
2023-01-13T23:15:28.557Z,79.68
2023-01-13T23:17:56.897Z,79.51
2023-01-13T23:20:24.638Z,79.31
2023-01-13T23:22:52.622Z,79.32
2023-01-13T23:25:20.447Z,79.24
2023-01-13T23:27:48.222Z,79.64
2023-01-13T23:30:16.635Z,79.15
2023-01-13T23:32:44.486Z,78.67
2023-01-13T23:35:14.234Z,79.30
2023-01-13T23:37:42.102Z,79.02
2023-01-13T23:40:09.995Z,78.89
2023-01-13T23:42:37.843Z,78.87
2023-01-13T23:45:05.702Z,78.63
2023-01-13T23:47:33.585Z,78.84
2023-01-13T23:50:01.389Z,78.77
2023-01-13T23:52:29.140Z,78.77
2023-01-13T23:54:57.954Z,78.95
2023-01-13T23:57:26.107Z,79.17
2023-01-13T23:59:54.155Z,78.64
